sensor_id;sensor_type;location;lat;lon;timestamp;P1;durP1;ratioP1;P2;durP2;ratioP2
29500;SDS011;16450;50.288;10.966;2024-03-07T00:01:28;19.73;;;12.83;;
29500;SDS011;16450;50.288;10.966;2024-03-07T00:04:30;19.50;;;12.50;;
29500;SDS011;16450;50.288;10.966;2024-03-07T00:07:32;20.50;;;12.10;;
29500;SDS011;16450;50.288;10.966;2024-03-07T00:10:34;21.03;;;12.43;;
29500;SDS011;16450;50.288;10.966;2024-03-07T00:13:37;20.93;;;12.93;;
29500;SDS011;16450;50.288;10.966;2024-03-07T00:16:39;19.93;;;12.47;;
29500;SDS011;16450;50.288;10.966;2024-03-07T00:19:41;22.37;;;12.93;;
29500;SDS011;16450;50.288;10.966;2024-03-07T00:22:43;19.87;;;12.80;;
29500;SDS011;16450;50.288;10.966;2024-03-07T00:25:45;21.93;;;13.37;;
29500;SDS011;16450;50.288;10.966;2024-03-07T00:28:50;21.10;;;13.00;;
29500;SDS011;16450;50.288;10.966;2024-03-07T00:31:52;19.27;;;12.27;;
29500;SDS011;16450;50.288;10.966;2024-03-07T00:34:54;21.07;;;13.47;;
29500;SDS011;16450;50.288;10.966;2024-03-07T00:37:58;21.80;;;13.70;;
29500;SDS011;16450;50.288;10.966;2024-03-07T00:41:00;21.17;;;12.97;;
29500;SDS011;16450;50.288;10.966;2024-03-07T00:44:02;22.63;;;13.73;;
29500;SDS011;16450;50.288;10.966;2024-03-07T00:47:04;23.50;;;14.83;;
29500;SDS011;16450;50.288;10.966;2024-03-07T00:50:06;23.83;;;13.93;;
29500;SDS011;16450;50.288;10.966;2024-03-07T00:53:10;25.13;;;14.70;;
29500;SDS011;16450;50.288;10.966;2024-03-07T00:56:12;23.23;;;14.37;;
29500;SDS011;16450;50.288;10.966;2024-03-07T00:59:17;21.93;;;13.40;;
29500;SDS011;16450;50.288;10.966;2024-03-07T01:02:19;28.00;;;14.77;;
29500;SDS011;16450;50.288;10.966;2024-03-07T01:05:21;24.23;;;14.37;;
29500;SDS011;16450;50.288;10.966;2024-03-07T01:08:23;25.63;;;15.00;;
29500;SDS011;16450;50.288;10.966;2024-03-07T01:11:25;26.07;;;14.97;;
29500;SDS011;16450;50.288;10.966;2024-03-07T01:14:27;26.30;;;14.67;;
29500;SDS011;16450;50.288;10.966;2024-03-07T01:17:29;24.23;;;14.77;;
29500;SDS011;16450;50.288;10.966;2024-03-07T01:20:31;24.90;;;15.07;;
29500;SDS011;16450;50.288;10.966;2024-03-07T01:23:33;25.77;;;14.90;;
29500;SDS011;16450;50.288;10.966;2024-03-07T01:26:35;25.70;;;15.07;;
29500;SDS011;16450;50.288;10.966;2024-03-07T01:29:37;30.00;;;16.43;;
29500;SDS011;16450;50.288;10.966;2024-03-07T01:32:42;26.37;;;15.60;;
29500;SDS011;16450;50.288;10.966;2024-03-07T01:35:44;26.30;;;15.27;;
29500;SDS011;16450;50.288;10.966;2024-03-07T01:38:47;24.97;;;14.80;;
29500;SDS011;16450;50.288;10.966;2024-03-07T01:41:49;25.03;;;14.80;;
29500;SDS011;16450;50.288;10.966;2024-03-07T01:44:51;23.10;;;14.03;;
29500;SDS011;16450;50.288;10.966;2024-03-07T01:47:53;22.77;;;13.87;;
29500;SDS011;16450;50.288;10.966;2024-03-07T01:50:56;23.47;;;13.97;;
29500;SDS011;16450;50.288;10.966;2024-03-07T01:53:59;24.60;;;14.17;;
29500;SDS011;16450;50.288;10.966;2024-03-07T01:57:01;23.97;;;13.53;;
29500;SDS011;16450;50.288;10.966;2024-03-07T02:00:05;21.87;;;12.77;;
29500;SDS011;16450;50.288;10.966;2024-03-07T02:03:08;24.00;;;13.40;;
29500;SDS011;16450;50.288;10.966;2024-03-07T02:06:11;21.97;;;13.27;;
29500;SDS011;16450;50.288;10.966;2024-03-07T02:09:13;23.03;;;12.60;;
29500;SDS011;16450;50.288;10.966;2024-03-07T02:12:15;21.60;;;12.43;;
29500;SDS011;16450;50.288;10.966;2024-03-07T02:15:17;20.63;;;12.73;;
29500;SDS011;16450;50.288;10.966;2024-03-07T02:18:19;24.60;;;13.27;;
29500;SDS011;16450;50.288;10.966;2024-03-07T02:21:22;23.87;;;12.77;;
29500;SDS011;16450;50.288;10.966;2024-03-07T02:24:24;20.80;;;12.60;;
29500;SDS011;16450;50.288;10.966;2024-03-07T02:27:26;22.20;;;12.73;;
29500;SDS011;16450;50.288;10.966;2024-03-07T02:30:28;21.80;;;13.03;;
29500;SDS011;16450;50.288;10.966;2024-03-07T02:33:33;21.33;;;12.37;;
29500;SDS011;16450;50.288;10.966;2024-03-07T02:36:35;20.87;;;11.77;;
29500;SDS011;16450;50.288;10.966;2024-03-07T02:39:37;20.10;;;11.60;;
29500;SDS011;16450;50.288;10.966;2024-03-07T02:42:38;22.17;;;12.43;;
29500;SDS011;16450;50.288;10.966;2024-03-07T02:45:40;21.07;;;11.67;;
29500;SDS011;16450;50.288;10.966;2024-03-07T02:48:42;20.70;;;11.50;;
29500;SDS011;16450;50.288;10.966;2024-03-07T02:51:45;20.80;;;11.80;;
29500;SDS011;16450;50.288;10.966;2024-03-07T02:54:47;20.60;;;10.97;;
29500;SDS011;16450;50.288;10.966;2024-03-07T02:57:49;20.27;;;11.70;;
29500;SDS011;16450;50.288;10.966;2024-03-07T03:00:57;21.17;;;12.00;;
29500;SDS011;16450;50.288;10.966;2024-03-07T03:04:01;23.63;;;11.97;;
29500;SDS011;16450;50.288;10.966;2024-03-07T03:07:02;22.90;;;12.77;;
29500;SDS011;16450;50.288;10.966;2024-03-07T03:10:05;24.43;;;13.40;;
29500;SDS011;16450;50.288;10.966;2024-03-07T03:13:11;22.87;;;12.67;;
29500;SDS011;16450;50.288;10.966;2024-03-07T03:16:12;23.93;;;13.00;;
29500;SDS011;16450;50.288;10.966;2024-03-07T03:19:14;26.03;;;13.33;;
29500;SDS011;16450;50.288;10.966;2024-03-07T03:22:16;25.10;;;13.63;;
29500;SDS011;16450;50.288;10.966;2024-03-07T03:25:20;26.03;;;13.60;;
29500;SDS011;16450;50.288;10.966;2024-03-07T03:28:22;24.43;;;13.53;;
29500;SDS011;16450;50.288;10.966;2024-03-07T03:31:24;24.67;;;13.57;;
29500;SDS011;16450;50.288;10.966;2024-03-07T03:34:26;27.20;;;13.97;;
29500;SDS011;16450;50.288;10.966;2024-03-07T03:37:29;24.57;;;13.67;;
29500;SDS011;16450;50.288;10.966;2024-03-07T03:40:31;21.80;;;12.80;;
29500;SDS011;16450;50.288;10.966;2024-03-07T03:43:33;25.90;;;14.27;;
29500;SDS011;16450;50.288;10.966;2024-03-07T03:46:35;26.60;;;13.97;;
29500;SDS011;16450;50.288;10.966;2024-03-07T03:49:37;25.97;;;13.70;;
29500;SDS011;16450;50.288;10.966;2024-03-07T03:52:39;24.53;;;13.20;;
29500;SDS011;16450;50.288;10.966;2024-03-07T03:55:41;28.37;;;15.07;;
29500;SDS011;16450;50.288;10.966;2024-03-07T03:58:43;27.37;;;14.43;;
29500;SDS011;16450;50.288;10.966;2024-03-07T04:01:45;28.50;;;15.07;;
29500;SDS011;16450;50.288;10.966;2024-03-07T04:04:47;27.20;;;13.90;;
29500;SDS011;16450;50.288;10.966;2024-03-07T04:07:50;29.90;;;14.77;;
29500;SDS011;16450;50.288;10.966;2024-03-07T04:10:52;26.80;;;15.13;;
29500;SDS011;16450;50.288;10.966;2024-03-07T04:13:53;30.00;;;14.43;;
29500;SDS011;16450;50.288;10.966;2024-03-07T04:16:55;27.77;;;14.80;;
29500;SDS011;16450;50.288;10.966;2024-03-07T04:19:58;26.07;;;13.97;;
29500;SDS011;16450;50.288;10.966;2024-03-07T04:23:01;30.30;;;14.60;;
29500;SDS011;16450;50.288;10.966;2024-03-07T04:26:04;26.87;;;14.57;;
29500;SDS011;16450;50.288;10.966;2024-03-07T04:29:06;27.47;;;14.73;;
29500;SDS011;16450;50.288;10.966;2024-03-07T04:32:09;28.57;;;14.20;;
29500;SDS011;16450;50.288;10.966;2024-03-07T04:35:12;24.30;;;13.17;;
29500;SDS011;16450;50.288;10.966;2024-03-07T04:38:19;29.17;;;14.80;;
29500;SDS011;16450;50.288;10.966;2024-03-07T04:41:21;26.47;;;13.90;;
29500;SDS011;16450;50.288;10.966;2024-03-07T04:44:23;27.43;;;14.23;;
29500;SDS011;16450;50.288;10.966;2024-03-07T04:47:26;23.97;;;14.13;;
29500;SDS011;16450;50.288;10.966;2024-03-07T04:50:28;28.87;;;15.23;;
29500;SDS011;16450;50.288;10.966;2024-03-07T04:53:30;28.47;;;14.60;;
29500;SDS011;16450;50.288;10.966;2024-03-07T04:56:33;28.47;;;14.90;;
29500;SDS011;16450;50.288;10.966;2024-03-07T04:59:34;26.20;;;14.07;;
29500;SDS011;16450;50.288;10.966;2024-03-07T05:02:36;28.83;;;14.13;;
29500;SDS011;16450;50.288;10.966;2024-03-07T05:05:38;31.87;;;14.87;;
29500;SDS011;16450;50.288;10.966;2024-03-07T05:08:42;26.23;;;14.00;;
29500;SDS011;16450;50.288;10.966;2024-03-07T05:11:47;27.53;;;14.20;;
29500;SDS011;16450;50.288;10.966;2024-03-07T05:14:49;29.00;;;14.67;;
29500;SDS011;16450;50.288;10.966;2024-03-07T05:17:54;26.10;;;13.37;;
29500;SDS011;16450;50.288;10.966;2024-03-07T05:20:57;27.73;;;14.60;;
29500;SDS011;16450;50.288;10.966;2024-03-07T05:24:19;32.47;;;16.83;;
29500;SDS011;16450;50.288;10.966;2024-03-07T05:27:21;41.67;;;22.37;;
29500;SDS011;16450;50.288;10.966;2024-03-07T05:30:23;32.50;;;17.27;;
29500;SDS011;16450;50.288;10.966;2024-03-07T05:33:27;34.57;;;18.60;;
29500;SDS011;16450;50.288;10.966;2024-03-07T05:36:32;30.50;;;15.40;;
29500;SDS011;16450;50.288;10.966;2024-03-07T05:39:33;29.97;;;15.47;;
29500;SDS011;16450;50.288;10.966;2024-03-07T05:42:36;31.50;;;16.30;;
29500;SDS011;16450;50.288;10.966;2024-03-07T05:45:38;29.87;;;15.87;;
29500;SDS011;16450;50.288;10.966;2024-03-07T05:48:40;29.50;;;15.10;;
29500;SDS011;16450;50.288;10.966;2024-03-07T05:51:42;28.43;;;15.70;;
29500;SDS011;16450;50.288;10.966;2024-03-07T05:54:46;27.53;;;15.83;;
29500;SDS011;16450;50.288;10.966;2024-03-07T05:57:47;31.47;;;15.87;;
29500;SDS011;16450;50.288;10.966;2024-03-07T06:00:49;31.70;;;15.90;;
29500;SDS011;16450;50.288;10.966;2024-03-07T06:03:52;26.60;;;15.00;;
29500;SDS011;16450;50.288;10.966;2024-03-07T06:06:54;28.83;;;15.23;;
29500;SDS011;16450;50.288;10.966;2024-03-07T06:09:56;29.87;;;15.20;;
29500;SDS011;16450;50.288;10.966;2024-03-07T06:12:58;30.37;;;15.63;;
29500;SDS011;16450;50.288;10.966;2024-03-07T06:16:11;28.80;;;15.80;;
29500;SDS011;16450;50.288;10.966;2024-03-07T06:19:13;29.67;;;15.00;;
29500;SDS011;16450;50.288;10.966;2024-03-07T06:22:15;30.13;;;15.63;;
29500;SDS011;16450;50.288;10.966;2024-03-07T06:25:17;32.93;;;16.17;;
29500;SDS011;16450;50.288;10.966;2024-03-07T06:28:35;31.63;;;15.93;;
29500;SDS011;16450;50.288;10.966;2024-03-07T06:31:37;26.97;;;15.73;;
29500;SDS011;16450;50.288;10.966;2024-03-07T06:34:39;26.77;;;15.87;;
29500;SDS011;16450;50.288;10.966;2024-03-07T06:37:40;28.30;;;15.67;;
29500;SDS011;16450;50.288;10.966;2024-03-07T06:40:42;29.43;;;15.73;;
29500;SDS011;16450;50.288;10.966;2024-03-07T06:43:44;37.63;;;17.10;;
29500;SDS011;16450;50.288;10.966;2024-03-07T06:46:46;31.53;;;16.23;;
29500;SDS011;16450;50.288;10.966;2024-03-07T06:49:48;32.43;;;16.40;;
29500;SDS011;16450;50.288;10.966;2024-03-07T06:52:49;30.40;;;16.63;;
29500;SDS011;16450;50.288;10.966;2024-03-07T06:55:52;31.07;;;16.43;;
29500;SDS011;16450;50.288;10.966;2024-03-07T06:58:54;29.87;;;15.90;;
29500;SDS011;16450;50.288;10.966;2024-03-07T07:01:56;33.03;;;16.60;;
29500;SDS011;16450;50.288;10.966;2024-03-07T07:05:00;30.93;;;16.63;;
29500;SDS011;16450;50.288;10.966;2024-03-07T07:08:01;29.83;;;16.27;;
29500;SDS011;16450;50.288;10.966;2024-03-07T07:11:03;31.33;;;16.93;;
29500;SDS011;16450;50.288;10.966;2024-03-07T07:14:05;29.27;;;15.03;;
29500;SDS011;16450;50.288;10.966;2024-03-07T07:17:07;27.93;;;14.90;;
29500;SDS011;16450;50.288;10.966;2024-03-07T07:20:11;27.47;;;13.87;;
29500;SDS011;16450;50.288;10.966;2024-03-07T07:23:16;31.03;;;15.57;;
29500;SDS011;16450;50.288;10.966;2024-03-07T07:26:18;28.77;;;13.77;;
29500;SDS011;16450;50.288;10.966;2024-03-07T07:29:19;27.53;;;13.60;;
29500;SDS011;16450;50.288;10.966;2024-03-07T07:32:21;26.83;;;13.87;;
29500;SDS011;16450;50.288;10.966;2024-03-07T07:35:23;25.60;;;13.77;;
29500;SDS011;16450;50.288;10.966;2024-03-07T07:38:26;26.80;;;13.87;;
29500;SDS011;16450;50.288;10.966;2024-03-07T07:41:28;24.40;;;12.87;;
29500;SDS011;16450;50.288;10.966;2024-03-07T07:44:31;23.87;;;13.40;;
29500;SDS011;16450;50.288;10.966;2024-03-07T07:47:35;26.40;;;13.33;;
29500;SDS011;16450;50.288;10.966;2024-03-07T07:50:38;25.93;;;12.13;;
29500;SDS011;16450;50.288;10.966;2024-03-07T07:53:40;24.40;;;12.87;;
29500;SDS011;16450;50.288;10.966;2024-03-07T07:56:42;25.97;;;13.50;;
29500;SDS011;16450;50.288;10.966;2024-03-07T07:59:45;26.67;;;13.33;;
29500;SDS011;16450;50.288;10.966;2024-03-07T08:05:56;23.70;;;13.53;;
29500;SDS011;16450;50.288;10.966;2024-03-07T08:08:58;27.13;;;13.43;;
29500;SDS011;16450;50.288;10.966;2024-03-07T08:12:00;23.87;;;13.33;;
29500;SDS011;16450;50.288;10.966;2024-03-07T08:15:04;26.00;;;13.23;;
29500;SDS011;16450;50.288;10.966;2024-03-07T08:18:06;24.27;;;13.13;;
29500;SDS011;16450;50.288;10.966;2024-03-07T08:21:11;25.90;;;13.50;;
29500;SDS011;16450;50.288;10.966;2024-03-07T08:24:13;23.93;;;13.40;;
29500;SDS011;16450;50.288;10.966;2024-03-07T08:27:15;24.57;;;13.07;;
29500;SDS011;16450;50.288;10.966;2024-03-07T08:30:17;26.10;;;14.77;;
29500;SDS011;16450;50.288;10.966;2024-03-07T08:33:19;24.97;;;13.70;;
29500;SDS011;16450;50.288;10.966;2024-03-07T08:36:23;25.73;;;13.50;;
29500;SDS011;16450;50.288;10.966;2024-03-07T08:39:25;25.57;;;14.10;;
29500;SDS011;16450;50.288;10.966;2024-03-07T08:42:27;26.50;;;14.10;;
29500;SDS011;16450;50.288;10.966;2024-03-07T08:45:29;25.97;;;13.97;;
29500;SDS011;16450;50.288;10.966;2024-03-07T08:48:35;28.30;;;14.13;;
29500;SDS011;16450;50.288;10.966;2024-03-07T08:51:38;23.63;;;13.17;;
29500;SDS011;16450;50.288;10.966;2024-03-07T08:54:40;26.60;;;13.90;;
29500;SDS011;16450;50.288;10.966;2024-03-07T08:57:42;23.40;;;13.70;;
29500;SDS011;16450;50.288;10.966;2024-03-07T09:00:47;26.10;;;13.43;;
29500;SDS011;16450;50.288;10.966;2024-03-07T09:03:50;27.23;;;14.63;;
29500;SDS011;16450;50.288;10.966;2024-03-07T09:06:52;22.40;;;13.20;;
29500;SDS011;16450;50.288;10.966;2024-03-07T09:09:54;23.63;;;13.37;;
29500;SDS011;16450;50.288;10.966;2024-03-07T09:12:56;23.20;;;14.00;;
29500;SDS011;16450;50.288;10.966;2024-03-07T09:15:58;25.03;;;14.13;;
29500;SDS011;16450;50.288;10.966;2024-03-07T09:19:00;26.10;;;14.57;;
29500;SDS011;16450;50.288;10.966;2024-03-07T09:22:02;25.83;;;14.20;;
29500;SDS011;16450;50.288;10.966;2024-03-07T09:25:05;25.40;;;13.60;;
29500;SDS011;16450;50.288;10.966;2024-03-07T09:28:07;23.97;;;14.07;;
29500;SDS011;16450;50.288;10.966;2024-03-07T09:31:09;23.63;;;13.90;;
29500;SDS011;16450;50.288;10.966;2024-03-07T09:34:11;22.73;;;13.87;;
29500;SDS011;16450;50.288;10.966;2024-03-07T09:37:13;24.33;;;14.70;;
29500;SDS011;16450;50.288;10.966;2024-03-07T09:40:15;25.83;;;15.10;;
29500;SDS011;16450;50.288;10.966;2024-03-07T09:43:17;23.63;;;14.23;;
29500;SDS011;16450;50.288;10.966;2024-03-07T09:46:21;24.27;;;15.13;;
29500;SDS011;16450;50.288;10.966;2024-03-07T09:49:25;23.83;;;14.07;;
29500;SDS011;16450;50.288;10.966;2024-03-07T09:52:29;23.07;;;13.90;;
29500;SDS011;16450;50.288;10.966;2024-03-07T09:55:32;23.73;;;14.07;;
29500;SDS011;16450;50.288;10.966;2024-03-07T09:58:34;22.83;;;14.33;;
29500;SDS011;16450;50.288;10.966;2024-03-07T10:01:41;25.87;;;15.23;;
29500;SDS011;16450;50.288;10.966;2024-03-07T10:04:48;26.13;;;15.40;;
29500;SDS011;16450;50.288;10.966;2024-03-07T10:07:52;24.73;;;14.80;;
29500;SDS011;16450;50.288;10.966;2024-03-07T10:10:54;25.60;;;14.67;;
29500;SDS011;16450;50.288;10.966;2024-03-07T10:13:57;26.30;;;15.50;;
29500;SDS011;16450;50.288;10.966;2024-03-07T10:16:59;24.90;;;15.37;;
29500;SDS011;16450;50.288;10.966;2024-03-07T10:20:00;27.90;;;15.67;;
29500;SDS011;16450;50.288;10.966;2024-03-07T10:23:03;28.17;;;15.80;;
29500;SDS011;16450;50.288;10.966;2024-03-07T10:26:04;29.30;;;16.20;;
29500;SDS011;16450;50.288;10.966;2024-03-07T10:29:06;28.53;;;16.57;;
29500;SDS011;16450;50.288;10.966;2024-03-07T10:32:12;27.63;;;16.30;;
29500;SDS011;16450;50.288;10.966;2024-03-07T10:35:14;27.23;;;15.63;;
29500;SDS011;16450;50.288;10.966;2024-03-07T10:38:22;36.77;;;21.37;;
29500;SDS011;16450;50.288;10.966;2024-03-07T10:41:24;45.63;;;28.07;;
29500;SDS011;16450;50.288;10.966;2024-03-07T10:44:31;26.70;;;15.93;;
29500;SDS011;16450;50.288;10.966;2024-03-07T10:47:39;27.93;;;15.70;;
29500;SDS011;16450;50.288;10.966;2024-03-07T10:50:55;26.07;;;15.27;;
29500;SDS011;16450;50.288;10.966;2024-03-07T10:54:20;27.70;;;15.50;;
29500;SDS011;16450;50.288;10.966;2024-03-07T10:57:31;25.93;;;15.33;;
29500;SDS011;16450;50.288;10.966;2024-03-07T11:00:42;28.97;;;15.33;;
29500;SDS011;16450;50.288;10.966;2024-03-07T11:03:49;26.07;;;15.67;;
29500;SDS011;16450;50.288;10.966;2024-03-07T11:06:54;27.13;;;15.47;;
29500;SDS011;16450;50.288;10.966;2024-03-07T11:09:57;29.13;;;15.33;;
29500;SDS011;16450;50.288;10.966;2024-03-07T11:12:59;26.87;;;15.43;;
29500;SDS011;16450;50.288;10.966;2024-03-07T11:16:02;30.53;;;16.23;;
29500;SDS011;16450;50.288;10.966;2024-03-07T11:22:30;29.10;;;16.00;;
29500;SDS011;16450;50.288;10.966;2024-03-07T11:25:34;27.17;;;15.07;;
29500;SDS011;16450;50.288;10.966;2024-03-07T11:28:37;27.47;;;15.63;;
29500;SDS011;16450;50.288;10.966;2024-03-07T11:31:40;28.67;;;15.97;;
29500;SDS011;16450;50.288;10.966;2024-03-07T11:34:42;26.23;;;15.13;;
29500;SDS011;16450;50.288;10.966;2024-03-07T11:37:49;25.50;;;15.10;;
29500;SDS011;16450;50.288;10.966;2024-03-07T11:40:53;29.73;;;15.13;;
29500;SDS011;16450;50.288;10.966;2024-03-07T11:43:58;27.90;;;16.17;;
29500;SDS011;16450;50.288;10.966;2024-03-07T11:47:04;26.80;;;15.23;;
29500;SDS011;16450;50.288;10.966;2024-03-07T11:50:10;27.30;;;14.90;;
29500;SDS011;16450;50.288;10.966;2024-03-07T11:53:14;26.87;;;15.47;;
29500;SDS011;16450;50.288;10.966;2024-03-07T11:56:17;25.77;;;15.43;;
29500;SDS011;16450;50.288;10.966;2024-03-07T11:59:19;25.57;;;14.97;;
29500;SDS011;16450;50.288;10.966;2024-03-07T12:02:21;26.87;;;15.90;;
29500;SDS011;16450;50.288;10.966;2024-03-07T12:05:24;23.37;;;13.10;;
29500;SDS011;16450;50.288;10.966;2024-03-07T12:08:28;22.60;;;13.13;;
29500;SDS011;16450;50.288;10.966;2024-03-07T12:11:31;23.27;;;13.77;;
29500;SDS011;16450;50.288;10.966;2024-03-07T12:14:33;20.70;;;12.20;;
29500;SDS011;16450;50.288;10.966;2024-03-07T12:17:35;22.40;;;13.03;;
29500;SDS011;16450;50.288;10.966;2024-03-07T12:20:38;24.43;;;14.00;;
29500;SDS011;16450;50.288;10.966;2024-03-07T12:23:40;25.93;;;14.60;;
29500;SDS011;16450;50.288;10.966;2024-03-07T12:26:42;26.23;;;14.87;;
29500;SDS011;16450;50.288;10.966;2024-03-07T12:29:44;26.97;;;15.50;;
29500;SDS011;16450;50.288;10.966;2024-03-07T12:32:49;30.73;;;15.63;;
29500;SDS011;16450;50.288;10.966;2024-03-07T12:35:53;27.97;;;15.97;;
29500;SDS011;16450;50.288;10.966;2024-03-07T12:39:01;27.70;;;15.83;;
29500;SDS011;16450;50.288;10.966;2024-03-07T12:42:10;27.60;;;14.80;;
29500;SDS011;16450;50.288;10.966;2024-03-07T12:45:16;26.07;;;15.27;;
29500;SDS011;16450;50.288;10.966;2024-03-07T12:48:21;24.33;;;14.63;;
29500;SDS011;16450;50.288;10.966;2024-03-07T12:51:23;24.73;;;14.97;;
29500;SDS011;16450;50.288;10.966;2024-03-07T12:54:26;23.43;;;13.37;;
29500;SDS011;16450;50.288;10.966;2024-03-07T12:57:28;21.50;;;13.30;;
29500;SDS011;16450;50.288;10.966;2024-03-07T13:00:30;21.07;;;13.03;;
29500;SDS011;16450;50.288;10.966;2024-03-07T13:03:32;22.27;;;12.73;;
29500;SDS011;16450;50.288;10.966;2024-03-07T13:06:34;21.33;;;12.73;;
29500;SDS011;16450;50.288;10.966;2024-03-07T13:09:36;22.30;;;12.27;;
29500;SDS011;16450;50.288;10.966;2024-03-07T13:12:39;18.97;;;12.13;;
29500;SDS011;16450;50.288;10.966;2024-03-07T13:15:43;19.50;;;12.60;;
29500;SDS011;16450;50.288;10.966;2024-03-07T13:18:48;20.00;;;12.73;;
29500;SDS011;16450;50.288;10.966;2024-03-07T13:21:51;20.97;;;12.53;;
29500;SDS011;16450;50.288;10.966;2024-03-07T13:24:54;23.40;;;13.13;;
29500;SDS011;16450;50.288;10.966;2024-03-07T13:31:10;23.23;;;13.27;;
29500;SDS011;16450;50.288;10.966;2024-03-07T13:34:18;19.40;;;12.87;;
29500;SDS011;16450;50.288;10.966;2024-03-07T13:37:20;20.00;;;12.27;;
29500;SDS011;16450;50.288;10.966;2024-03-07T13:40:25;18.90;;;12.63;;
29500;SDS011;16450;50.288;10.966;2024-03-07T13:43:28;20.37;;;12.47;;
29500;SDS011;16450;50.288;10.966;2024-03-07T13:46:30;22.83;;;12.83;;
29500;SDS011;16450;50.288;10.966;2024-03-07T13:49:34;18.27;;;11.53;;
29500;SDS011;16450;50.288;10.966;2024-03-07T13:52:38;20.57;;;12.37;;
29500;SDS011;16450;50.288;10.966;2024-03-07T13:55:53;19.90;;;12.23;;
29500;SDS011;16450;50.288;10.966;2024-03-07T13:59:26;19.37;;;11.97;;
29500;SDS011;16450;50.288;10.966;2024-03-07T14:06:32;19.67;;;11.93;;
29500;SDS011;16450;50.288;10.966;2024-03-07T14:09:51;22.23;;;12.10;;
29500;SDS011;16450;50.288;10.966;2024-03-07T14:23:41;18.43;;;11.90;;
29500;SDS011;16450;50.288;10.966;2024-03-07T14:34:02;24.40;;;12.83;;
29500;SDS011;16450;50.288;10.966;2024-03-07T14:37:17;20.20;;;12.83;;
29500;SDS011;16450;50.288;10.966;2024-03-07T14:40:24;23.10;;;12.97;;
29500;SDS011;16450;50.288;10.966;2024-03-07T14:43:27;20.33;;;12.97;;
29500;SDS011;16450;50.288;10.966;2024-03-07T14:46:30;24.20;;;13.13;;
29500;SDS011;16450;50.288;10.966;2024-03-07T14:49:36;24.43;;;13.23;;
29500;SDS011;16450;50.288;10.966;2024-03-07T14:52:39;21.37;;;13.10;;
29500;SDS011;16450;50.288;10.966;2024-03-07T14:55:41;23.33;;;13.80;;
29500;SDS011;16450;50.288;10.966;2024-03-07T14:58:44;24.07;;;13.47;;
29500;SDS011;16450;50.288;10.966;2024-03-07T15:01:47;23.83;;;13.70;;
29500;SDS011;16450;50.288;10.966;2024-03-07T15:04:49;21.67;;;13.07;;
29500;SDS011;16450;50.288;10.966;2024-03-07T15:07:51;23.57;;;13.87;;
29500;SDS011;16450;50.288;10.966;2024-03-07T15:10:59;24.60;;;13.50;;
29500;SDS011;16450;50.288;10.966;2024-03-07T15:14:14;24.70;;;14.20;;
29500;SDS011;16450;50.288;10.966;2024-03-07T15:17:26;24.47;;;14.80;;
29500;SDS011;16450;50.288;10.966;2024-03-07T15:20:28;24.87;;;13.97;;
29500;SDS011;16450;50.288;10.966;2024-03-07T15:23:32;22.10;;;13.83;;
29500;SDS011;16450;50.288;10.966;2024-03-07T15:26:34;23.37;;;14.57;;
29500;SDS011;16450;50.288;10.966;2024-03-07T15:29:37;23.33;;;14.47;;
29500;SDS011;16450;50.288;10.966;2024-03-07T15:32:41;23.20;;;14.73;;
29500;SDS011;16450;50.288;10.966;2024-03-07T15:35:44;26.23;;;14.50;;
29500;SDS011;16450;50.288;10.966;2024-03-07T15:38:46;23.87;;;15.20;;
29500;SDS011;16450;50.288;10.966;2024-03-07T15:41:48;28.63;;;15.33;;
29500;SDS011;16450;50.288;10.966;2024-03-07T15:44:50;24.17;;;14.97;;
29500;SDS011;16450;50.288;10.966;2024-03-07T15:50:55;24.83;;;15.07;;
29500;SDS011;16450;50.288;10.966;2024-03-07T15:53:59;26.40;;;15.43;;
29500;SDS011;16450;50.288;10.966;2024-03-07T15:57:01;23.80;;;14.10;;
29500;SDS011;16450;50.288;10.966;2024-03-07T16:00:05;24.83;;;13.87;;
29500;SDS011;16450;50.288;10.966;2024-03-07T16:03:23;22.63;;;13.77;;
29500;SDS011;16450;50.288;10.966;2024-03-07T16:06:26;25.07;;;14.70;;
29500;SDS011;16450;50.288;10.966;2024-03-07T16:09:28;22.70;;;14.40;;
29500;SDS011;16450;50.288;10.966;2024-03-07T16:12:30;30.43;;;16.43;;
29500;SDS011;16450;50.288;10.966;2024-03-07T16:15:35;25.60;;;14.20;;
29500;SDS011;16450;50.288;10.966;2024-03-07T16:18:43;26.80;;;15.57;;
29500;SDS011;16450;50.288;10.966;2024-03-07T16:21:44;28.70;;;15.93;;
29500;SDS011;16450;50.288;10.966;2024-03-07T16:24:46;26.73;;;15.73;;
29500;SDS011;16450;50.288;10.966;2024-03-07T16:27:52;25.20;;;14.37;;
29500;SDS011;16450;50.288;10.966;2024-03-07T16:30:55;23.97;;;14.27;;
29500;SDS011;16450;50.288;10.966;2024-03-07T16:33:59;24.77;;;14.13;;
29500;SDS011;16450;50.288;10.966;2024-03-07T16:37:01;23.83;;;13.90;;
29500;SDS011;16450;50.288;10.966;2024-03-07T16:40:09;23.27;;;13.70;;
29500;SDS011;16450;50.288;10.966;2024-03-07T16:43:12;26.43;;;14.13;;
29500;SDS011;16450;50.288;10.966;2024-03-07T16:46:15;24.50;;;14.07;;
29500;SDS011;16450;50.288;10.966;2024-03-07T16:49:17;24.03;;;14.63;;
29500;SDS011;16450;50.288;10.966;2024-03-07T16:52:19;26.60;;;14.90;;
29500;SDS011;16450;50.288;10.966;2024-03-07T16:55:24;23.93;;;15.03;;
29500;SDS011;16450;50.288;10.966;2024-03-07T16:58:29;26.57;;;15.07;;
29500;SDS011;16450;50.288;10.966;2024-03-07T17:01:31;26.87;;;14.33;;
29500;SDS011;16450;50.288;10.966;2024-03-07T17:04:33;23.67;;;14.30;;
29500;SDS011;16450;50.288;10.966;2024-03-07T17:07:35;23.30;;;13.60;;
29500;SDS011;16450;50.288;10.966;2024-03-07T17:10:37;23.30;;;13.97;;
29500;SDS011;16450;50.288;10.966;2024-03-07T17:13:42;25.33;;;14.13;;
29500;SDS011;16450;50.288;10.966;2024-03-07T17:16:43;26.83;;;14.50;;
29500;SDS011;16450;50.288;10.966;2024-03-07T17:19:45;21.37;;;13.50;;
29500;SDS011;16450;50.288;10.966;2024-03-07T17:22:49;25.30;;;14.40;;
29500;SDS011;16450;50.288;10.966;2024-03-07T17:25:54;25.33;;;14.50;;
29500;SDS011;16450;50.288;10.966;2024-03-07T17:28:59;25.53;;;14.50;;
29500;SDS011;16450;50.288;10.966;2024-03-07T17:32:02;24.93;;;13.67;;
29500;SDS011;16450;50.288;10.966;2024-03-07T17:35:06;25.30;;;13.30;;
29500;SDS011;16450;50.288;10.966;2024-03-07T17:38:12;28.10;;;14.87;;
29500;SDS011;16450;50.288;10.966;2024-03-07T17:41:15;30.23;;;16.47;;
29500;SDS011;16450;50.288;10.966;2024-03-07T17:44:18;33.00;;;16.73;;
29500;SDS011;16450;50.288;10.966;2024-03-07T17:47:21;27.73;;;15.97;;
29500;SDS011;16450;50.288;10.966;2024-03-07T17:50:25;28.90;;;16.00;;
29500;SDS011;16450;50.288;10.966;2024-03-07T17:53:28;27.70;;;16.23;;
29500;SDS011;16450;50.288;10.966;2024-03-07T17:56:31;28.10;;;16.30;;
29500;SDS011;16450;50.288;10.966;2024-03-07T17:59:34;25.53;;;14.53;;
29500;SDS011;16450;50.288;10.966;2024-03-07T18:02:35;27.07;;;14.93;;
29500;SDS011;16450;50.288;10.966;2024-03-07T18:05:38;25.60;;;14.97;;
29500;SDS011;16450;50.288;10.966;2024-03-07T18:08:54;25.50;;;14.70;;
29500;SDS011;16450;50.288;10.966;2024-03-07T18:12:01;27.20;;;15.43;;